sensor_id;sensor_type;location;lat;lon;timestamp;pressure;altitude;pressure_sealevel;temperature;humidity
76605;BME280;73179;50.978;16.998;2024-03-22T00:01:55;100542.38;;;9.55;89.96
76605;BME280;73179;50.978;16.998;2024-03-22T00:04:22;100542.09;;;9.56;88.74
76605;BME280;73179;50.978;16.998;2024-03-22T00:06:49;100555.91;;;9.65;87.55
76605;BME280;73179;50.978;16.998;2024-03-22T00:09:16;100529.38;;;9.47;86.30
76605;BME280;73179;50.978;16.998;2024-03-22T00:11:44;100563.72;;;9.56;85.81
76605;BME280;73179;50.978;16.998;2024-03-22T00:14:11;100530.44;;;9.36;85.01
76605;BME280;73179;50.978;16.998;2024-03-22T00:16:38;100562.09;;;9.50;82.35
76605;BME280;73179;50.978;16.998;2024-03-22T00:19:04;100493.09;;;9.07;81.40
76605;BME280;73179;50.978;16.998;2024-03-22T00:21:30;100541.22;;;9.31;81.02
76605;BME280;73179;50.978;16.998;2024-03-22T00:23:57;100546.38;;;9.32;80.64
76605;BME280;73179;50.978;16.998;2024-03-22T00:26:23;100558.00;;;9.33;80.52
76605;BME280;73179;50.978;16.998;2024-03-22T00:28:49;100530.13;;;9.17;80.70
76605;BME280;73179;50.978;16.998;2024-03-22T00:31:16;100516.31;;;9.08;80.54
76605;BME280;73179;50.978;16.998;2024-03-22T00:33:42;100524.97;;;9.16;79.97
76605;BME280;73179;50.978;16.998;2024-03-22T00:36:09;100503.88;;;8.97;80.34
76605;BME280;73179;50.978;16.998;2024-03-22T00:38:35;100547.69;;;9.25;80.58
76605;BME280;73179;50.978;16.998;2024-03-22T00:41:02;100526.59;;;9.06;80.07
76605;BME280;73179;50.978;16.998;2024-03-22T00:43:28;100540.09;;;9.06;80.77
76605;BME280;73179;50.978;16.998;2024-03-22T00:45:54;100527.63;;;8.95;80.89
76605;BME280;73179;50.978;16.998;2024-03-22T00:48:20;100559.03;;;9.17;80.32
76605;BME280;73179;50.978;16.998;2024-03-22T00:50:46;100554.13;;;9.08;80.89
76605;BME280;73179;50.978;16.998;2024-03-22T00:53:12;100545.47;;;9.01;80.58
76605;BME280;73179;50.978;16.998;2024-03-22T00:55:39;100543.88;;;9.05;80.54
76605;BME280;73179;50.978;16.998;2024-03-22T00:58:05;100522.75;;;8.87;80.64
76605;BME280;73179;50.978;16.998;2024-03-22T01:00:32;100527.56;;;8.85;80.35
76605;BME280;73179;50.978;16.998;2024-03-22T01:02:58;100498.06;;;8.64;80.68
76605;BME280;73179;50.978;16.998;2024-03-22T01:05:24;100520.50;;;8.74;81.11
76605;BME280;73179;50.978;16.998;2024-03-22T01:07:51;100544.34;;;8.87;80.43
76605;BME280;73179;50.978;16.998;2024-03-22T01:10:18;100546.78;;;8.94;80.87
76605;BME280;73179;50.978;16.998;2024-03-22T01:12:44;100529.41;;;8.70;81.50
76605;BME280;73179;50.978;16.998;2024-03-22T01:15:10;100491.22;;;8.46;81.11
76605;BME280;73179;50.978;16.998;2024-03-22T01:17:36;100538.06;;;8.72;81.51
76605;BME280;73179;50.978;16.998;2024-03-22T01:20:03;100508.78;;;8.48;81.54
76605;BME280;73179;50.978;16.998;2024-03-22T01:22:29;100500.34;;;8.35;81.35
76605;BME280;73179;50.978;16.998;2024-03-22T01:24:55;100517.34;;;8.35;81.77
76605;BME280;73179;50.978;16.998;2024-03-22T01:27:21;100545.78;;;8.53;82.13
76605;BME280;73179;50.978;16.998;2024-03-22T01:29:48;100528.69;;;8.42;82.47
76605;BME280;73179;50.978;16.998;2024-03-22T01:32:14;100523.47;;;8.26;82.61
76605;BME280;73179;50.978;16.998;2024-03-22T01:34:40;100491.50;;;8.02;83.17
76605;BME280;73179;50.978;16.998;2024-03-22T01:37:06;100520.00;;;8.30;83.58
76605;BME280;73179;50.978;16.998;2024-03-22T01:39:33;100509.34;;;8.13;83.54
76605;BME280;73179;50.978;16.998;2024-03-22T01:41:59;100500.16;;;8.09;83.85
76605;BME280;73179;50.978;16.998;2024-03-22T01:44:29;100519.38;;;8.23;84.04
76605;BME280;73179;50.978;16.998;2024-03-22T01:46:56;100506.69;;;8.19;84.25
76605;BME280;73179;50.978;16.998;2024-03-22T01:49:24;100490.44;;;8.08;84.54
76605;BME280;73179;50.978;16.998;2024-03-22T01:51:51;100486.38;;;8.06;84.84
76605;BME280;73179;50.978;16.998;2024-03-22T01:54:20;100472.63;;;8.02;84.56
76605;BME280;73179;50.978;16.998;2024-03-22T01:56:46;100513.16;;;8.18;84.88
76605;BME280;73179;50.978;16.998;2024-03-22T01:59:13;100479.31;;;7.95;85.24
76605;BME280;73179;50.978;16.998;2024-03-22T02:01:39;100500.94;;;8.05;85.57
76605;BME280;73179;50.978;16.998;2024-03-22T02:04:05;100490.91;;;8.00;85.48
76605;BME280;73179;50.978;16.998;2024-03-22T02:06:32;100493.91;;;7.99;85.67
76605;BME280;73179;50.978;16.998;2024-03-22T02:08:58;100491.44;;;7.97;86.00
76605;BME280;73179;50.978;16.998;2024-03-22T02:11:26;100483.84;;;7.89;85.92
76605;BME280;73179;50.978;16.998;2024-03-22T02:13:53;100507.69;;;8.07;86.56
76605;BME280;73179;50.978;16.998;2024-03-22T02:16:19;100480.38;;;7.94;86.41
76605;BME280;73179;50.978;16.998;2024-03-22T02:18:45;100461.44;;;7.84;86.27
76605;BME280;73179;50.978;16.998;2024-03-22T02:21:11;100499.59;;;8.07;86.55
76605;BME280;73179;50.978;16.998;2024-03-22T02:23:39;100476.03;;;7.93;86.81
76605;BME280;73179;50.978;16.998;2024-03-22T02:26:06;100463.84;;;7.85;86.69
76605;BME280;73179;50.978;16.998;2024-03-22T02:28:33;100496.94;;;8.12;87.01
76605;BME280;73179;50.978;16.998;2024-03-22T02:31:00;100488.81;;;8.07;87.11
76605;BME280;73179;50.978;16.998;2024-03-22T02:33:27;100473.16;;;8.04;87.21
76605;BME280;73179;50.978;16.998;2024-03-22T02:35:52;100489.41;;;8.14;86.72
76605;BME280;73179;50.978;16.998;2024-03-22T02:38:19;100489.44;;;8.20;87.19
76605;BME280;73179;50.978;16.998;2024-03-22T02:40:48;100480.22;;;8.10;86.78
76605;BME280;73179;50.978;16.998;2024-03-22T02:43:15;100488.38;;;8.21;87.06
76605;BME280;73179;50.978;16.998;2024-03-22T02:45:43;100480.03;;;8.22;86.67
76605;BME280;73179;50.978;16.998;2024-03-22T02:48:09;100499.22;;;8.31;86.54
76605;BME280;73179;50.978;16.998;2024-03-22T02:50:37;100487.31;;;8.22;87.15
76605;BME280;73179;50.978;16.998;2024-03-22T02:53:04;100487.91;;;8.29;87.18
76605;BME280;73179;50.978;16.998;2024-03-22T02:55:30;100500.34;;;8.30;87.20
76605;BME280;73179;50.978;16.998;2024-03-22T02:58:01;100474.31;;;8.13;87.88
76605;BME280;73179;50.978;16.998;2024-03-22T03:00:28;100488.38;;;8.21;88.02
76605;BME280;73179;50.978;16.998;2024-03-22T03:02:54;100465.94;;;8.10;88.60
76605;BME280;73179;50.978;16.998;2024-03-22T03:05:20;100454.28;;;8.04;88.93
76605;BME280;73179;50.978;16.998;2024-03-22T03:07:49;100469.72;;;8.14;89.50
76605;BME280;73179;50.978;16.998;2024-03-22T03:10:16;100477.06;;;8.24;90.09
76605;BME280;73179;50.978;16.998;2024-03-22T03:12:42;100464.88;;;8.16;90.62
76605;BME280;73179;50.978;16.998;2024-03-22T03:15:08;100465.94;;;8.10;90.95
76605;BME280;73179;50.978;16.998;2024-03-22T03:17:34;100456.44;;;8.02;91.13
76605;BME280;73179;50.978;16.998;2024-03-22T03:20:00;100456.94;;;7.99;92.01
76605;BME280;73179;50.978;16.998;2024-03-22T03:22:27;100467.47;;;8.01;92.61
76605;BME280;73179;50.978;16.998;2024-03-22T03:24:53;100454.19;;;7.89;93.87
76605;BME280;73179;50.978;16.998;2024-03-22T03:27:19;100460.16;;;7.96;94.39
76605;BME280;73179;50.978;16.998;2024-03-22T03:29:45;100457.44;;;7.91;94.98
76605;BME280;73179;50.978;16.998;2024-03-22T03:32:11;100460.16;;;7.96;95.20
76605;BME280;73179;50.978;16.998;2024-03-22T03:34:37;100437.44;;;7.82;95.21
76605;BME280;73179;50.978;16.998;2024-03-22T03:37:03;100442.31;;;7.85;94.98
76605;BME280;73179;50.978;16.998;2024-03-22T03:39:29;100432.88;;;7.83;94.90
76605;BME280;73179;50.978;16.998;2024-03-22T03:41:56;100454.47;;;7.93;94.41
76605;BME280;73179;50.978;16.998;2024-03-22T03:44:22;100443.16;;;7.91;94.71
76605;BME280;73179;50.978;16.998;2024-03-22T03:46:48;100464.81;;;8.06;94.52
76605;BME280;73179;50.978;16.998;2024-03-22T03:49:14;100439.38;;;7.92;95.03
76605;BME280;73179;50.978;16.998;2024-03-22T03:51:40;100448.84;;;7.99;94.57
76605;BME280;73179;50.978;16.998;2024-03-22T03:54:06;100422.31;;;7.81;94.30
76605;BME280;73179;50.978;16.998;2024-03-22T03:56:33;100439.66;;;7.90;94.60
76605;BME280;73179;50.978;16.998;2024-03-22T03:58:59;100436.38;;;7.83;94.20
76605;BME280;73179;50.978;16.998;2024-03-22T04:01:26;100456.34;;;7.92;94.31
76605;BME280;73179;50.978;16.998;2024-03-22T04:03:52;100448.81;;;7.89;94.13
76605;BME280;73179;50.978;16.998;2024-03-22T04:06:19;100469.16;;;8.07;94.00
76605;BME280;73179;50.978;16.998;2024-03-22T04:08:44;100462.09;;;8.01;94.54
76605;BME280;73179;50.978;16.998;2024-03-22T04:11:11;100458.84;;;7.99;94.65
76605;BME280;73179;50.978;16.998;2024-03-22T04:13:37;100436.09;;;7.85;94.54
76605;BME280;73179;50.978;16.998;2024-03-22T04:16:04;100438.25;;;7.83;94.62
76605;BME280;73179;50.978;16.998;2024-03-22T04:18:30;100449.63;;;7.90;94.31
76605;BME280;73179;50.978;16.998;2024-03-22T04:20:58;100477.44;;;8.00;95.26
76605;BME280;73179;50.978;16.998;2024-03-22T04:23:27;100469.34;;;7.95;95.32
76605;BME280;73179;50.978;16.998;2024-03-22T04:25:58;100446.03;;;7.79;95.02
76605;BME280;73179;50.978;16.998;2024-03-22T04:28:27;100461.75;;;7.92;94.89
76605;BME280;73179;50.978;16.998;2024-03-22T04:31:02;100458.75;;;7.89;94.83
76605;BME280;73179;50.978;16.998;2024-03-22T04:33:29;100441.78;;;7.88;94.67
76605;BME280;73179;50.978;16.998;2024-03-22T04:35:56;100463.97;;;8.00;94.93
76605;BME280;73179;50.978;16.998;2024-03-22T04:38:24;100445.75;;;7.81;94.90
76605;BME280;73179;50.978;16.998;2024-03-22T04:40:50;100470.16;;;8.01;94.67
76605;BME280;73179;50.978;16.998;2024-03-22T04:43:17;100441.47;;;7.85;95.07
76605;BME280;73179;50.978;16.998;2024-03-22T04:45:44;100466.38;;;7.97;95.00
76605;BME280;73179;50.978;16.998;2024-03-22T04:48:12;100443.88;;;7.81;94.54
76605;BME280;73179;50.978;16.998;2024-03-22T04:50:38;100446.59;;;7.81;94.46
76605;BME280;73179;50.978;16.998;2024-03-22T04:53:04;100478.25;;;8.01;94.98
76605;BME280;73179;50.978;16.998;2024-03-22T04:55:32;100451.44;;;7.79;95.17
76605;BME280;73179;50.978;16.998;2024-03-22T04:58:01;100481.72;;;7.96;95.90
76605;BME280;73179;50.978;16.998;2024-03-22T05:00:28;100459.53;;;7.79;96.74
76605;BME280;73179;50.978;16.998;2024-03-22T05:02:54;100455.44;;;7.77;97.07
76605;BME280;73179;50.978;16.998;2024-03-22T05:05:21;100458.94;;;7.72;97.89
76605;BME280;73179;50.978;16.998;2024-03-22T05:07:47;100468.38;;;7.75;98.39
76605;BME280;73179;50.978;16.998;2024-03-22T05:10:14;100471.31;;;7.73;98.38
76605;BME280;73179;50.978;16.998;2024-03-22T05:12:41;100483.72;;;7.74;98.87
76605;BME280;73179;50.978;16.998;2024-03-22T05:15:08;100486.47;;;7.79;99.45
76605;BME280;73179;50.978;16.998;2024-03-22T05:17:34;100472.91;;;7.69;99.62
76605;BME280;73179;50.978;16.998;2024-03-22T05:20:00;100467.78;;;7.68;99.99
76605;BME280;73179;50.978;16.998;2024-03-22T05:22:27;100419.84;;;7.38;100.00
76605;BME280;73179;50.978;16.998;2024-03-22T05:24:54;100473.75;;;7.75;100.00
76605;BME280;73179;50.978;16.998;2024-03-22T05:27:20;100464.28;;;7.67;100.00
76605;BME280;73179;50.978;16.998;2024-03-22T05:29:46;100447.75;;;7.58;100.00
76605;BME280;73179;50.978;16.998;2024-03-22T05:32:12;100458.25;;;7.55;100.00
76605;BME280;73179;50.978;16.998;2024-03-22T05:34:38;100464.50;;;7.60;100.00
76605;BME280;73179;50.978;16.998;2024-03-22T05:37:04;100479.56;;;7.61;100.00
76605;BME280;73179;50.978;16.998;2024-03-22T05:39:31;100496.38;;;7.74;100.00
76605;BME280;73179;50.978;16.998;2024-03-22T05:41:57;100498.25;;;7.73;100.00
76605;BME280;73179;50.978;16.998;2024-03-22T05:44:23;100475.00;;;7.62;100.00
76605;BME280;73179;50.978;16.998;2024-03-22T05:46:51;100470.66;;;7.56;100.00
76605;BME280;73179;50.978;16.998;2024-03-22T05:49:17;100468.47;;;7.53;100.00
76605;BME280;73179;50.978;16.998;2024-03-22T05:51:43;100474.91;;;7.52;100.00
76605;BME280;73179;50.978;16.998;2024-03-22T05:54:09;100470.06;;;7.49;100.00
76605;BME280;73179;50.978;16.998;2024-03-22T05:56:35;100481.13;;;7.52;100.00
76605;BME280;73179;50.978;16.998;2024-03-22T05:59:02;100480.25;;;7.47;100.00
76605;BME280;73179;50.978;16.998;2024-03-22T06:01:27;100480.25;;;7.47;100.00
76605;BME280;73179;50.978;16.998;2024-03-22T06:03:54;100489.75;;;7.54;100.00
76605;BME280;73179;50.978;16.998;2024-03-22T06:06:20;100469.88;;;7.34;100.00
76605;BME280;73179;50.978;16.998;2024-03-22T06:08:51;100470.97;;;7.33;100.00
76605;BME280;73179;50.978;16.998;2024-03-22T06:11:22;100497.00;;;7.49;100.00
76605;BME280;73179;50.978;16.998;2024-03-22T06:13:49;100494.25;;;7.44;100.00
76605;BME280;73179;50.978;16.998;2024-03-22T06:16:15;100484.16;;;7.34;100.00
76605;BME280;73179;50.978;16.998;2024-03-22T06:18:41;100476.53;;;7.21;100.00
76605;BME280;73179;50.978;16.998;2024-03-22T06:21:07;100472.94;;;7.15;100.00
76605;BME280;73179;50.978;16.998;2024-03-22T06:23:33;100474.53;;;7.11;100.00
76605;BME280;73179;50.978;16.998;2024-03-22T06:26:00;100492.69;;;7.21;100.00
76605;BME280;73179;50.978;16.998;2024-03-22T06:28:27;100485.34;;;7.16;100.00
76605;BME280;73179;50.978;16.998;2024-03-22T06:30:54;100492.63;;;7.16;100.00
76605;BME280;73179;50.978;16.998;2024-03-22T06:33:20;100496.66;;;7.18;100.00
76605;BME280;73179;50.978;16.998;2024-03-22T06:35:47;100477.66;;;7.03;100.00
76605;BME280;73179;50.978;16.998;2024-03-22T06:38:13;100483.41;;;7.12;100.00
76605;BME280;73179;50.978;16.998;2024-03-22T06:40:39;100485.09;;;7.18;100.00
76605;BME280;73179;50.978;16.998;2024-03-22T06:43:06;100485.28;;;7.11;100.00
76605;BME280;73179;50.978;16.998;2024-03-22T06:45:32;100475.91;;;7.14;100.00
76605;BME280;73179;50.978;16.998;2024-03-22T06:47:58;100470.78;;;7.12;100.00
76605;BME280;73179;50.978;16.998;2024-03-22T06:50:24;100465.91;;;7.09;100.00
76605;BME280;73179;50.978;16.998;2024-03-22T06:52:51;100464.28;;;7.08;100.00
76605;BME280;73179;50.978;16.998;2024-03-22T06:55:22;100455.13;;;7.09;100.00
76605;BME280;73179;50.978;16.998;2024-03-22T06:57:49;100484.16;;;7.29;100.00
76605;BME280;73179;50.978;16.998;2024-03-22T07:00:16;100414.56;;;6.89;100.00
76605;BME280;73179;50.978;16.998;2024-03-22T07:02:42;100466.28;;;7.23;100.00
76605;BME280;73179;50.978;16.998;2024-03-22T07:05:10;100455.78;;;7.22;100.00
76605;BME280;73179;50.978;16.998;2024-03-22T07:07:36;100447.44;;;7.23;100.00
76605;BME280;73179;50.978;16.998;2024-03-22T07:10:04;100429.38;;;7.18;100.00
76605;BME280;73179;50.978;16.998;2024-03-22T07:12:33;100437.03;;;7.32;100.00
76605;BME280;73179;50.978;16.998;2024-03-22T07:15:00;100464.16;;;7.52;99.76
76605;BME280;73179;50.978;16.998;2024-03-22T07:17:27;100445.25;;;7.47;99.80
76605;BME280;73179;50.978;16.998;2024-03-22T07:19:54;100447.00;;;7.63;99.36
76605;BME280;73179;50.978;16.998;2024-03-22T07:22:22;100380.97;;;7.24;98.06
76605;BME280;73179;50.978;16.998;2024-03-22T07:24:49;100270.50;;;6.45;97.21
76605;BME280;73179;50.978;16.998;2024-03-22T07:27:17;100314.63;;;6.81;97.28
76605;BME280;73179;50.978;16.998;2024-03-22T07:29:49;100228.38;;;6.29;97.51
76605;BME280;73179;50.978;16.998;2024-03-22T07:32:15;100328.50;;;6.94;97.75
76605;BME280;73179;50.978;16.998;2024-03-22T07:34:46;100239.53;;;6.42;97.53
76605;BME280;73179;50.978;16.998;2024-03-22T07:37:12;100257.38;;;6.53;96.89
76605;BME280;73179;50.978;16.998;2024-03-22T07:39:38;100349.41;;;7.14;96.75
76605;BME280;73179;50.978;16.998;2024-03-22T07:42:04;100445.75;;;7.81;96.44
76605;BME280;73179;50.978;16.998;2024-03-22T07:44:31;100428.72;;;7.70;95.62
76605;BME280;73179;50.978;16.998;2024-03-22T07:46:57;100397.63;;;7.52;95.45
76605;BME280;73179;50.978;16.998;2024-03-22T07:49:24;100357.38;;;7.36;95.23
76605;BME280;73179;50.978;16.998;2024-03-22T07:51:50;100363.56;;;7.36;95.29
76605;BME280;73179;50.978;16.998;2024-03-22T07:54:19;100383.06;;;7.53;96.16
76605;BME280;73179;50.978;16.998;2024-03-22T07:56:48;100358.81;;;7.53;95.30
76605;BME280;73179;50.978;16.998;2024-03-22T07:59:19;100432.75;;;8.09;94.79
76605;BME280;73179;50.978;16.998;2024-03-22T08:01:45;100278.53;;;7.08;94.08
76605;BME280;73179;50.978;16.998;2024-03-22T08:04:16;100440.47;;;8.33;95.45
76605;BME280;73179;50.978;16.998;2024-03-22T08:06:42;100410.16;;;8.21;94.59
76605;BME280;73179;50.978;16.998;2024-03-22T08:09:08;100397.25;;;8.28;94.90
76605;BME280;73179;50.978;16.998;2024-03-22T08:11:38;100297.34;;;7.92;94.19
76605;BME280;73179;50.978;16.998;2024-03-22T08:14:04;100262.78;;;7.74;92.84
76605;BME280;73179;50.978;16.998;2024-03-22T08:16:31;100291.50;;;8.10;91.89
76605;BME280;73179;50.978;16.998;2024-03-22T08:18:57;100349.38;;;8.65;90.93
76605;BME280;73179;50.978;16.998;2024-03-22T08:21:42;100371.03;;;9.05;91.04
76605;BME280;73179;50.978;16.998;2024-03-22T08:34:40;100348.53;;;9.86;83.72
76605;BME280;73179;50.978;16.998;2024-03-22T08:37:09;100272.16;;;9.45;81.66
76605;BME280;73179;50.978;16.998;2024-03-22T08:39:35;100294.00;;;9.64;82.06
76605;BME280;73179;50.978;16.998;2024-03-22T08:42:01;100242.66;;;9.58;81.89
76605;BME280;73179;50.978;16.998;2024-03-22T08:44:31;100291.69;;;10.01;80.53
76605;BME280;73179;50.978;16.998;2024-03-22T08:46:59;100235.59;;;9.73;79.15
76605;BME280;73179;50.978;16.998;2024-03-22T08:50:01;100179.75;;;9.48;78.74
76605;BME280;73179;50.978;16.998;2024-03-22T08:52:34;100211.78;;;9.70;78.11
76605;BME280;73179;50.978;16.998;2024-03-22T08:55:02;100222.84;;;9.78;77.12
76605;BME280;73179;50.978;16.998;2024-03-22T08:57:39;100176.66;;;9.70;78.51
76605;BME280;73179;50.978;16.998;2024-03-22T09:00:09;100219.81;;;10.39;77.71
76605;BME280;73179;50.978;16.998;2024-03-22T09:02:41;100196.84;;;10.36;76.13
76605;BME280;73179;50.978;16.998;2024-03-22T09:05:09;100245.06;;;10.68;75.97
76605;BME280;73179;50.978;16.998;2024-03-22T09:07:46;100198.34;;;10.81;74.74
76605;BME280;73179;50.978;16.998;2024-03-22T09:10:25;100138.69;;;10.34;74.06
76605;BME280;73179;50.978;16.998;2024-03-22T09:13:07;100314.03;;;11.67;75.06
76605;BME280;73179;50.978;16.998;2024-03-22T09:15:55;100208.38;;;11.10;74.66
76605;BME280;73179;50.978;16.998;2024-03-22T09:18:22;100105.78;;;10.79;72.48
76605;BME280;73179;50.978;16.998;2024-03-22T09:20:54;100160.72;;;11.09;72.37
76605;BME280;73179;50.978;16.998;2024-03-22T09:23:36;100195.53;;;11.20;71.64
76605;BME280;73179;50.978;16.998;2024-03-22T09:26:05;100155.09;;;10.76;71.60
76605;BME280;73179;50.978;16.998;2024-03-22T09:28:32;100261.19;;;11.41;71.75
76605;BME280;73179;50.978;16.998;2024-03-22T09:31:03;100258.88;;;11.29;71.99
76605;BME280;73179;50.978;16.998;2024-03-22T09:33:29;100319.44;;;11.72;71.81
76605;BME280;73179;50.978;16.998;2024-03-22T09:35:55;100226.78;;;11.13;71.08
76605;BME280;73179;50.978;16.998;2024-03-22T09:38:22;100219.69;;;11.17;70.03
76605;BME280;73179;50.978;16.998;2024-03-22T09:40:48;100154.53;;;10.79;70.66
76605;BME280;73179;50.978;16.998;2024-03-22T09:43:22;100313.34;;;11.85;70.00
76605;BME280;73179;50.978;16.998;2024-03-22T10:00:15;100304.09;;;11.86;68.30
76605;BME280;73179;50.978;16.998;2024-03-22T10:02:45;100192.38;;;11.13;68.19
76605;BME280;73179;50.978;16.998;2024-03-22T10:14:10;100024.81;;;9.96;68.76
76605;BME280;73179;50.978;16.998;2024-03-22T10:40:35;100207.78;;;11.65;66.67
76605;BME280;73179;50.978;16.998;2024-03-22T10:43:02;100261.53;;;12.06;66.45
76605;BME280;73179;50.978;16.998;2024-03-22T10:45:29;100235.69;;;11.89;66.08
76605;BME280;73179;50.978;16.998;2024-03-22T10:47:56;100252.53;;;12.10;67.11
76605;BME280;73179;50.978;16.998;2024-03-22T10:50:22;100259.78;;;12.15;66.63
76605;BME280;73179;50.978;16.998;2024-03-22T10:52:56;100229.28;;;12.04;66.93
76605;BME280;73179;50.978;16.998;2024-03-22T10:55:38;100253.66;;;12.28;66.71
76605;BME280;73179;50.978;16.998;2024-03-22T10:58:05;100241.16;;;12.27;66.15
76605;BME280;73179;50.978;16.998;2024-03-22T11:00:36;100211.44;;;12.17;66.87
76605;BME280;73179;50.978;16.998;2024-03-22T11:03:03;100236.59;;;12.41;66.77
76605;BME280;73179;50.978;16.998;2024-03-22T11:05:30;100216.59;;;12.37;67.67
76605;BME280;73179;50.978;16.998;2024-03-22T11:08:06;100220.25;;;12.46;66.79
76605;BME280;73179;50.978;16.998;2024-03-22T11:10:37;100231.97;;;12.60;65.83
76605;BME280;73179;50.978;16.998;2024-03-22T11:13:04;100227.69;;;12.73;67.07
76605;BME280;73179;50.978;16.998;2024-03-22T11:15:33;100189.53;;;12.64;66.81
76605;BME280;73179;50.978;16.998;2024-03-22T11:18:00;100216.97;;;12.81;64.10
76605;BME280;73179;50.978;16.998;2024-03-22T11:20:27;100198.31;;;12.75;65.10
76605;BME280;73179;50.978;16.998;2024-03-22T11:22:54;100205.63;;;12.93;64.67
76605;BME280;73179;50.978;16.998;2024-03-22T11:25:20;100186.16;;;12.72;62.97
76605;BME280;73179;50.978;16.998;2024-03-22T11:27:46;100126.22;;;12.18;64.65
76605;BME280;73179;50.978;16.998;2024-03-22T11:30:13;100185.47;;;12.80;66.57
76605;BME280;73179;50.978;16.998;2024-03-22T11:32:40;100160.41;;;12.83;65.83
76605;BME280;73179;50.978;16.998;2024-03-22T11:35:12;100167.47;;;12.84;64.59
76605;BME280;73179;50.978;16.998;2024-03-22T11:37:39;100179.56;;;12.92;64.64
76605;BME280;73179;50.978;16.998;2024-03-22T11:40:08;100169.88;;;12.86;64.07
76605;BME280;73179;50.978;16.998;2024-03-22T11:42:38;100142.47;;;12.69;65.27
76605;BME280;73179;50.978;16.998;2024-03-22T11:45:06;100182.28;;;13.06;66.29
76605;BME280;73179;50.978;16.998;2024-03-22T11:47:34;100163.94;;;13.16;66.32
76605;BME280;73179;50.978;16.998;2024-03-22T11:50:02;100145.28;;;13.10;64.15
76605;BME280;73179;50.978;16.998;2024-03-22T11:52:35;100100.69;;;12.97;65.25
76605;BME280;73179;50.978;16.998;2024-03-22T11:55:02;100142.66;;;13.18;64.49
76605;BME280;73179;50.978;16.998;2024-03-22T11:57:30;100119.78;;;12.92;62.54
76605;BME280;73179;50.978;16.998;2024-03-22T12:00:02;100145.38;;;13.05;63.25
76605;BME280;73179;50.978;16.998;2024-03-22T12:02:32;100140.94;;;13.09;63.61
76605;BME280;73179;50.978;16.998;2024-03-22T12:05:00;100120.72;;;13.01;63.28
76605;BME280;73179;50.978;16.998;2024-03-22T12:07:27;100125.75;;;13.21;64.29
76605;BME280;73179;50.978;16.998;2024-03-22T12:09:54;100060.28;;;12.90;63.00
76605;BME280;73179;50.978;16.998;2024-03-22T12:12:22;100089.72;;;13.16;63.87
76605;BME280;73179;50.978;16.998;2024-03-22T12:14:57;100119.72;;;13.38;62.45
76605;BME280;73179;50.978;16.998;2024-03-22T12:17:23;100094.25;;;13.34;61.95
76605;BME280;73179;50.978;16.998;2024-03-22T12:19:49;100105.88;;;13.48;62.58
76605;BME280;73179;50.978;16.998;2024-03-22T12:22:17;100038.19;;;13.11;61.77
76605;BME280;73179;50.978;16.998;2024-03-22T12:24:43;100100.88;;;13.55;60.71
76605;BME280;73179;50.978;16.998;2024-03-22T12:27:09;100058.88;;;13.34;61.84
76605;BME280;73179;50.978;16.998;2024-03-22T12:29:35;100097.19;;;13.73;59.48
76605;BME280;73179;50.978;16.998;2024-03-22T12:32:02;100085.22;;;13.74;59.02
76605;BME280;73179;50.978;16.998;2024-03-22T12:34:32;100038.31;;;13.55;59.91
76605;BME280;73179;50.978;16.998;2024-03-22T12:37:00;100083.59;;;13.96;59.72
76605;BME280;73179;50.978;16.998;2024-03-22T12:39:26;100013.03;;;13.55;58.44
76605;BME280;73179;50.978;16.998;2024-03-22T12:41:53;100026.50;;;13.60;59.40
76605;BME280;73179;50.978;16.998;2024-03-22T12:44:19;100030.38;;;13.67;59.09
76605;BME280;73179;50.978;16.998;2024-03-22T12:46:47;100062.72;;;14.05;58.95
76605;BME280;73179;50.978;16.998;2024-03-22T12:49:13;100021.50;;;13.75;58.47
76605;BME280;73179;50.978;16.998;2024-03-22T12:51:39;100042.16;;;13.76;57.45
76605;BME280;73179;50.978;16.998;2024-03-22T12:54:07;100041.47;;;13.71;56.38
76605;BME280;73179;50.978;16.998;2024-03-22T12:56:33;100048.13;;;13.78;57.55
76605;BME280;73179;50.978;16.998;2024-03-22T12:59:00;100041.34;;;13.76;58.56
76605;BME280;73179;50.978;16.998;2024-03-22T13:01:26;100019.94;;;13.61;58.37
76605;BME280;73179;50.978;16.998;2024-03-22T13:03:52;100039.06;;;13.69;58.05
76605;BME280;73179;50.978;16.998;2024-03-22T13:06:19;100024.91;;;13.59;60.63
76605;BME280;73179;50.978;16.998;2024-03-22T13:08:45;100013.19;;;13.36;57.34
76605;BME280;73179;50.978;16.998;2024-03-22T13:11:11;100006.44;;;13.33;57.71
76605;BME280;73179;50.978;16.998;2024-03-22T13:13:38;100033.06;;;13.59;59.46
76605;BME280;73179;50.978;16.998;2024-03-22T13:16:05;99994.00;;;13.41;58.23
76605;BME280;73179;50.978;16.998;2024-03-22T13:18:32;99979.84;;;13.30;57.78
76605;BME280;73179;50.978;16.998;2024-03-22T13:20:58;100018.72;;;13.67;59.23
76605;BME280;73179;50.978;16.998;2024-03-22T13:23:24;99968.63;;;13.68;57.78
76605;BME280;73179;50.978;16.998;2024-03-22T13:25:51;99984.38;;;14.02;56.00
76605;BME280;73179;50.978;16.998;2024-03-22T13:28:18;100010.72;;;14.37;53.20
76605;BME280;73179;50.978;16.998;2024-03-22T13:30:47;100005.69;;;14.30;52.73
76605;BME280;73179;50.978;16.998;2024-03-22T13:33:13;100002.66;;;14.32;51.23
76605;BME280;73179;50.978;16.998;2024-03-22T13:35:48;99964.97;;;14.25;52.71
76605;BME280;73179;50.978;16.998;2024-03-22T13:38:17;99977.44;;;14.40;52.25
76605;BME280;73179;50.978;16.998;2024-03-22T13:40:53;99971.56;;;14.24;52.38
76605;BME280;73179;50.978;16.998;2024-03-22T13:43:19;99988.34;;;14.49;51.50
76605;BME280;73179;50.978;16.998;2024-03-22T13:45:51;99967.69;;;14.56;53.06